Disclaimer

Please do not use the information listed here in-flight or in-navigation, as they are not provided to us by the airports but are provided by volunteers, so they might be outdated.

Search


Regions


Airport information page

Radio informations:
TRUJILLO APP/TWR - 118.7 MHz

Airport informations:
Latitude: 08° 04' 53.08" S
Longitude: 079° 06' 31.54" W
Elevation: 106 feet - 32 meters
Operating hours: From sunrise to sunset (SR-SS)
Operating agency: Civil government, landing fees and diplomatic clearance may be required
Timezone: UTC-5
Fuel: Jet A1, without icing nhibitor.

100/130 octane gasoline, leaded, MIL-L-5572F (GREEN)

100/130 MIL Spec, low lead, aviation gasoline (BLUE)

Runway information:
02/20 - 9920 x 145 feet< - >3024 x 44 meters

Recent METARs:
SPRU 190400Z 16005KT 8000 FEW020 BKN150 19/16 Q1014 RMK BR PP000
SPRU 190500Z 14006KT 8000 BKN150 19/16 Q1014 RMK BR PP000
SPRU 190500Z 14006KT 8000 BKN150 19/16 Q1014 RMK BR PP000

Airport on the map: